Time;durP1;ratioP1;P1;durP2;ratioP2;P2;SDS_P1;SDS_P2;PMS_P1;PMS_P2;Temp;Humidity;BMP_temperature;BMP_pressure;BME280_temperature;BME280_humidity;BME280_pressure;Samples;Min_cycle;Max_cycle;Signal;HPM_P1;HPM_P2
2023/07/13 00:04:00;;;;;;;1.83;1.70;;;18.50;1.00;;;;;;8363184;28;20335;-64
2023/07/13 00:08:01;;;;;;;2.50;1.70;;;18.50;1.00;;;;;;8360301;28;20222;-65
2023/07/13 00:12:02;;;;;;;2.17;1.80;;;18.40;1.00;;;;;;8346946;28;20239;-65
2023/07/13 00:16:03;;;;;;;1.70;1.60;;;18.40;1.00;;;;;;8350806;28;20276;-66
2023/07/13 00:20:05;;;;;;;1.87;1.73;;;18.30;1.00;;;;;;8349403;28;20190;-68
2023/07/13 00:24:08;;;;;;;2.17;1.67;;;18.20;1.00;;;;;;8350488;28;20185;-66
2023/07/13 00:28:08;;;;;;;2.53;1.97;;;18.00;1.00;;;;;;8345196;28;20296;-67
2023/07/13 00:32:11;;;;;;;1.70;1.60;;;17.90;1.00;;;;;;8361607;28;20212;-65
2023/07/13 00:36:12;;;;;;;2.23;2.03;;;17.80;1.00;;;;;;8361320;28;20209;-64
2023/07/13 00:40:15;;;;;;;2.03;1.83;;;17.80;1.00;;;;;;8366768;28;20219;-65
2023/07/13 00:44:23;;;;;;;1.80;1.70;;;17.70;1.00;;;;;;8369320;28;20194;-65
2023/07/13 00:48:28;;;;;;;1.97;1.77;;;17.70;1.00;;;;;;8354064;28;20218;-63
2023/07/13 00:52:30;;;;;;;3.47;1.73;;;17.60;1.00;;;;;;8368756;28;20205;-64
2023/07/13 00:56:32;;;;;;;1.47;1.33;;;17.60;1.00;;;;;;8351220;28;20194;-65
2023/07/13 01:00:37;;;;;;;1.80;1.63;;;17.60;1.00;;;;;;8369282;28;20190;-66
2023/07/13 01:04:38;;;;;;;4.33;1.47;;;17.60;1.00;;;;;;8353571;28;20208;-65
2023/07/13 01:08:39;;;;;;;1.73;1.37;;;17.50;1.00;;;;;;8348939;28;20213;-65
2023/07/13 01:12:41;;;;;;;3.00;1.70;;;17.40;1.00;;;;;;8367938;28;20187;-65
2023/07/13 01:16:43;;;;;;;2.20;2.00;;;17.40;1.00;;;;;;8359658;28;20299;-65
2023/07/13 01:21:10;;;;;;;1.50;1.40;;;17.30;1.00;;;;;;8353722;28;20185;-66
2023/07/13 01:25:11;;;;;;;1.90;1.60;;;17.30;1.00;;;;;;8365475;28;20217;-65
2023/07/13 01:29:12;;;;;;;1.90;1.70;;;17.10;1.00;;;;;;8352253;28;20177;-63
2023/07/13 01:33:14;;;;;;;1.93;1.60;;;17.00;1.00;;;;;;8353427;28;20208;-64
2023/07/13 01:37:15;;;;;;;2.57;1.80;;;16.80;1.00;;;;;;8353822;28;20189;-64
2023/07/13 01:41:16;;;;;;;2.03;1.73;;;16.80;8.40;;;;;;8367633;28;20246;-64
2023/07/13 01:45:17;;;;;;;2.50;2.13;;;16.70;23.00;;;;;;8367021;28;20200;-65
2023/07/13 01:49:18;;;;;;;2.13;1.90;;;16.60;45.10;;;;;;8348218;28;20277;-64
2023/07/13 01:53:19;;;;;;;2.30;2.00;;;16.60;55.30;;;;;;8349166;28;20185;-64
2023/07/13 01:57:20;;;;;;;2.90;2.40;;;16.60;62.90;;;;;;8351402;28;20190;-65
2023/07/13 02:01:21;;;;;;;2.10;1.90;;;16.60;65.40;;;;;;8352985;28;20244;-64
2023/07/13 02:05:21;;;;;;;5.97;2.10;;;16.50;76.70;;;;;;8353626;28;20247;-64
2023/07/13 02:09:22;;;;;;;2.03;1.83;;;16.50;88.20;;;;;;8363598;28;20188;-64
2023/07/13 02:13:23;;;;;;;2.20;2.00;;;16.50;94.80;;;;;;8368526;28;20183;-64
2023/07/13 02:17:25;;;;;;;2.63;2.07;;;16.50;99.50;;;;;;8350890;28;20221;-65
2023/07/13 02:21:27;;;;;;;2.40;2.20;;;16.60;99.90;;;;;;8353014;28;20290;-64
2023/07/13 02:25:28;;;;;;;2.03;1.80;;;16.60;97.00;;;;;;8368631;28;20270;-65
2023/07/13 02:29:29;;;;;;;3.37;2.10;;;16.60;92.90;;;;;;8351250;28;20216;-65
2023/07/13 02:33:30;;;;;;;2.23;1.93;;;16.70;69.60;;;;;;8361509;28;20188;-65
2023/07/13 02:37:31;;;;;;;1.90;1.60;;;16.80;51.90;;;;;;8349371;28;20188;-64
2023/07/13 02:41:32;;;;;;;2.87;2.27;;;16.80;48.00;;;;;;8361611;28;20190;-64
2023/07/13 02:45:36;;;;;;;2.43;2.23;;;16.80;59.60;;;;;;8345985;28;20208;-65
2023/07/13 02:49:37;;;;;;;4.23;2.90;;;16.90;94.10;;;;;;8346763;28;20189;-65
2023/07/13 02:53:38;;;;;;;3.43;2.60;;;17.00;51.60;;;;;;8349492;28;20181;-64
2023/07/13 02:57:38;;;;;;;2.53;2.33;;;17.20;1.00;;;;;;8364377;28;20193;-66
2023/07/13 03:06:49;;;;;;;6.40;4.00;;;17.40;99.90;;;;;;8365534;28;20326;-69
2023/07/13 03:10:59;;;;;;;3.87;2.63;;;17.40;99.90;;;;;;8349274;28;20246;-67
2023/07/13 03:15:00;;;;;;;3.40;2.77;;;17.10;99.90;;;;;;8350609;28;20224;-69
2023/07/13 03:19:01;;;;;;;4.03;2.80;;;17.10;99.90;;;;;;8365071;28;20189;-68
2023/07/13 03:23:03;;;;;;;3.60;3.10;;;17.10;99.90;;;;;;8365010;28;20192;-68
2023/07/13 03:27:05;;;;;;;4.00;3.60;;;17.10;99.90;;;;;;8349148;28;20298;-68
2023/07/13 03:31:12;;;;;;;4.87;3.50;;;17.00;1.00;;;;;;8351505;28;20238;-67
2023/07/13 03:35:12;;;;;;;5.40;4.07;;;17.00;1.00;;;;;;8361571;28;20248;-68
2023/07/13 03:39:13;;;;;;;5.73;4.30;;;17.00;1.00;;;;;;8346949;28;20211;-69
2023/07/13 03:43:15;;;;;;;5.33;3.80;;;16.90;1.00;;;;;;8361862;28;20263;-64
2023/07/13 03:47:16;;;;;;;4.23;3.37;;;16.90;1.00;;;;;;8345901;28;20224;-65
2023/07/13 03:51:20;;;;;;;3.60;3.27;;;16.90;26.50;;;;;;8351645;28;20186;-64
2023/07/13 03:55:21;;;;;;;7.30;4.00;;;16.90;99.90;;;;;;8357396;28;20185;-64
2023/07/13 03:59:25;;;;;;;7.40;3.97;;;16.80;99.90;;;;;;8348584;28;20185;-64
2023/07/13 04:03:27;;;;;;;5.53;4.00;;;16.80;99.90;;;;;;8348248;28;20228;-63
2023/07/13 04:07:28;;;;;;;6.07;3.60;;;16.80;1.00;;;;;;8351938;28;20206;-62
2023/07/13 04:11:31;;;;;;;4.30;3.50;;;16.80;1.00;;;;;;8347389;28;20185;-64
2023/07/13 04:15:36;;;;;;;7.73;4.47;;;16.70;1.00;;;;;;8353326;28;20178;-64
2023/07/13 04:19:39;;;;;;;8.60;7.43;;;16.80;1.00;;;;;;8355830;28;20204;-63
2023/07/13 04:23:40;;;;;;;4.80;4.23;;;16.80;5.60;;;;;;8356000;28;20190;-64
2023/07/13 04:27:41;;;;;;;6.33;3.97;;;16.80;19.70;;;;;;8352865;28;20268;-63
2023/07/13 04:31:42;;;;;;;6.63;4.73;;;16.80;1.00;;;;;;8349616;28;20207;-64
2023/07/13 04:35:46;;;;;;;4.60;4.20;;;16.90;99.90;;;;;;8355438;28;20198;-64
2023/07/13 04:39:47;;;;;;;5.10;3.73;;;17.10;99.90;;;;;;8355355;28;20185;-63
2023/07/13 04:43:48;;;;;;;4.20;3.77;;;17.10;27.70;;;;;;8367812;28;20235;-63
2023/07/13 04:47:50;;;;;;;5.60;3.40;;;17.30;1.00;;;;;;8366764;28;20217;-62
2023/07/13 04:51:50;;;;;;;5.53;4.30;;;17.40;1.00;;;;;;8356881;28;20197;-61
2023/07/13 04:55:51;;;;;;;5.13;4.03;;;17.60;1.00;;;;;;8355776;28;20188;-61
2023/07/13 04:59:53;;;;;;;4.13;3.30;;;17.90;99.90;;;;;;8368129;28;20224;-64
2023/07/13 05:03:56;;;;;;;3.60;2.90;;;18.10;99.90;;;;;;8364256;28;20211;-63
2023/07/13 05:07:56;;;;;;;3.77;3.00;;;18.20;99.90;;;;;;8348764;28;20212;-66
2023/07/13 05:11:57;;;;;;;3.60;2.90;;;18.30;67.50;;;;;;8352357;28;20181;-66
2023/07/13 05:16:01;;;;;;;3.57;2.97;;;18.30;49.90;;;;;;8351570;28;20200;-66
2023/07/13 05:20:06;;;;;;;4.00;3.10;;;18.40;28.50;;;;;;8367057;28;20276;-67
2023/07/13 05:24:07;;;;;;;5.20;3.07;;;18.70;1.00;;;;;;8350058;28;20192;-67
2023/07/13 05:28:11;;;;;;;4.77;3.23;;;18.90;1.00;;;;;;8353584;28;20209;-67
2023/07/13 05:32:12;;;;;;;4.80;2.80;;;19.00;1.00;;;;;;8350947;28;20209;-67
2023/07/13 05:36:13;;;;;;;3.07;2.70;;;19.00;99.90;;;;;;8356524;28;20200;-67
2023/07/13 05:40:14;;;;;;;3.57;2.43;;;18.90;99.90;;;;;;8365039;28;20193;-68
2023/07/13 05:44:15;;;;;;;3.07;2.67;;;18.90;99.90;;;;;;8368674;28;20262;-68
2023/07/13 05:48:16;;;;;;;5.17;2.73;;;18.80;99.90;;;;;;8356853;28;20216;-67
2023/07/13 05:52:17;;;;;;;4.57;2.93;;;18.70;99.90;;;;;;8346582;28;20174;-67
2023/07/13 05:56:17;;;;;;;7.80;3.43;;;18.60;99.90;;;;;;8349868;28;20189;-68
2023/07/13 06:00:19;;;;;;;6.27;3.40;;;18.40;99.90;;;;;;8347097;28;20189;-67
2023/07/13 06:04:20;;;;;;;4.67;3.70;;;18.20;1.00;;;;;;8348930;28;20206;-68
2023/07/13 06:08:20;;;;;;;4.20;3.43;;;18.10;1.00;;;;;;8363594;28;20246;-66
2023/07/13 06:12:21;;;;;;;5.37;3.40;;;17.90;1.00;;;;;;8345740;28;20263;-66
2023/07/13 06:16:23;;;;;;;5.00;3.10;;;17.80;67.60;;;;;;8354240;28;20204;-66
2023/07/13 06:20:24;;;;;;;3.33;2.87;;;17.80;99.90;;;;;;8356203;28;20200;-65
2023/07/13 06:24:25;;;;;;;4.60;3.53;;;17.90;99.90;;;;;;8370125;28;20191;-66
2023/07/13 06:28:26;;;;;;;3.53;2.80;;;18.10;99.90;;;;;;8351983;28;20205;-66
2023/07/13 06:32:27;;;;;;;2.87;2.43;;;18.20;52.30;;;;;;8344968;28;20201;-66
2023/07/13 06:36:28;;;;;;;3.43;2.70;;;18.60;1.00;;;;;;8349405;28;20266;-67
2023/07/13 06:40:30;;;;;;;4.37;2.40;;;19.10;1.00;;;;;;8360924;28;20181;-66
2023/07/13 06:44:31;;;;;;;3.03;2.03;;;19.60;99.90;;;;;;8369379;28;20284;-65
2023/07/13 06:48:31;;;;;;;3.40;2.30;;;20.00;99.90;;;;;;8363723;28;20236;-67
2023/07/13 06:52:33;;;;;;;3.60;2.27;;;20.40;99.90;;;;;;8349465;28;20293;-66
2023/07/13 06:56:34;;;;;;;2.67;2.20;;;20.80;99.90;;;;;;8348726;28;20200;-66
2023/07/13 07:00:35;;;;;;;2.90;2.20;;;21.10;91.70;;;;;;8365609;28;20193;-67
2023/07/13 07:04:35;;;;;;;2.43;1.73;;;21.20;42.30;;;;;;8362195;28;20209;-67
2023/07/13 07:08:36;;;;;;;3.00;2.10;;;21.30;27.30;;;;;;8351243;28;20213;-66
2023/07/13 07:12:37;;;;;;;3.40;1.87;;;21.40;10.80;;;;;;8343957;28;20208;-68
2023/07/13 07:16:37;;;;;;;2.73;1.83;;;21.70;1.60;;;;;;8343680;28;20213;-66
2023/07/13 07:20:38;;;;;;;3.73;2.43;;;22.00;1.00;;;;;;8347790;28;20206;-67
2023/07/13 07:24:39;;;;;;;6.60;2.20;;;22.40;1.00;;;;;;8351475;28;20189;-68
2023/07/13 07:28:40;;;;;;;4.70;2.20;;;22.80;1.00;;;;;;8365228;28;20208;-69
2023/07/13 07:32:41;;;;;;;3.63;1.73;;;23.00;1.00;;;;;;8362216;28;20189;-67
2023/07/13 07:36:42;;;;;;;2.50;1.97;;;22.70;1.00;;;;;;8347759;28;20189;-66
2023/07/13 07:40:43;;;;;;;8.20;2.03;;;22.70;1.00;;;;;;8345810;28;20186;-68
2023/07/13 07:44:44;;;;;;;3.90;2.27;;;22.60;1.00;;;;;;8342248;28;20230;-67
2023/07/13 07:48:45;;;;;;;2.37;1.83;;;22.50;1.00;;;;;;8344725;28;20209;-66
2023/07/13 07:52:46;;;;;;;1.70;1.60;;;22.50;1.00;;;;;;8346195;28;20211;-66
2023/07/13 07:56:47;;;;;;;2.20;1.80;;;22.70;1.00;;;;;;8369244;28;20182;-66
2023/07/13 08:00:48;;;;;;;2.17;1.90;;;22.80;1.00;;;;;;8369576;28;20204;-67
2023/07/13 08:04:49;;;;;;;2.00;1.83;;;22.70;1.00;;;;;;8368001;28;20204;-65
2023/07/13 08:08:50;;;;;;;2.30;2.00;;;22.70;1.00;;;;;;8366344;28;20225;-67
2023/07/13 08:12:51;;;;;;;4.90;2.30;;;22.90;1.00;;;;;;8355652;28;20181;-65
2023/07/13 08:16:53;;;;;;;3.57;1.90;;;22.90;1.00;;;;;;8358805;28;20188;-65
2023/07/13 08:21:02;;;;;;;2.77;1.73;;;23.00;1.00;;;;;;8355098;28;20185;-67
2023/07/13 08:25:03;;;;;;;3.07;1.93;;;22.70;1.00;;;;;;8353643;28;20193;-65
2023/07/13 08:29:05;;;;;;;4.30;2.33;;;22.60;1.00;;;;;;8354585;28;20209;-66
2023/07/13 08:33:06;;;;;;;3.03;2.27;;;22.70;1.00;;;;;;8369308;28;20239;-65
2023/07/13 08:37:09;;;;;;;3.37;2.17;;;22.80;1.00;;;;;;8366104;28;20181;-66
2023/07/13 08:41:19;;;;;;;3.50;1.77;;;23.40;1.00;;;;;;8368225;28;20177;-67
2023/07/13 08:45:21;;;;;;;2.73;1.87;;;24.20;1.00;;;;;;8349974;28;20187;-66
2023/07/13 08:49:23;;;;;;;5.00;1.70;;;24.40;1.00;;;;;;8349728;28;20239;-67
2023/07/13 08:53:29;;;;;;;2.97;1.90;;;24.70;1.00;;;;;;8365701;28;20196;-67
2023/07/13 08:57:34;;;;;;;2.97;2.00;;;24.80;99.90;;;;;;8351426;28;20228;-67
2023/07/13 09:01:58;;;;;;;2.83;1.77;;;24.80;99.90;;;;;;8355312;28;20201;-66
2023/07/13 09:06:02;;;;;;;2.37;2.17;;;24.60;99.90;;;;;;8334902;28;20229;-66
2023/07/13 09:10:12;;;;;;;2.63;1.80;;;24.50;99.90;;;;;;8348117;28;20186;-67
2023/07/13 20:04:08;;;;;;;2.40;2.00;;;18.80;1.00;;;;;;8347120;28;20617;-63
2023/07/13 20:08:19;;;;;;;2.20;2.00;;;18.60;1.00;;;;;;8353731;28;20197;-62
2023/07/13 20:12:24;;;;;;;2.43;2.23;;;18.40;1.00;;;;;;8354781;28;20186;-63
2023/07/13 20:16:25;;;;;;;2.07;1.70;;;18.20;1.00;;;;;;8331875;28;20256;-63
2023/07/13 20:20:26;;;;;;;2.67;2.20;;;18.00;1.00;;;;;;8337343;28;20264;-63
2023/07/13 20:24:27;;;;;;;2.30;2.10;;;17.80;1.00;;;;;;8354439;28;20253;-63
2023/07/13 20:28:28;;;;;;;2.40;2.20;;;17.60;1.00;;;;;;8337871;28;20171;-62
2023/07/13 20:32:32;;;;;;;2.47;1.90;;;17.50;1.00;;;;;;8336236;28;20189;-63
2023/07/13 20:36:33;;;;;;;3.30;2.30;;;17.30;1.00;;;;;;8340438;28;20185;-63
2023/07/13 20:40:34;;;;;;;2.47;2.23;;;17.20;1.00;;;;;;8338236;28;20210;-63
2023/07/13 20:44:35;;;;;;;2.53;2.33;;;17.10;1.00;;;;;;8338460;28;20244;-62
2023/07/13 20:48:39;;;;;;;2.20;2.00;;;16.90;1.00;;;;;;8336607;28;20178;-62
2023/07/13 20:52:40;;;;;;;4.57;2.20;;;16.80;1.60;;;;;;8338711;28;20194;-63
2023/07/13 20:56:41;;;;;;;2.50;2.30;;;16.70;12.70;;;;;;8338670;28;20190;-63
2023/07/13 21:00:42;;;;;;;2.53;2.30;;;16.60;5.70;;;;;;8332877;28;20235;-63
2023/07/13 21:04:46;;;;;;;2.90;2.50;;;16.50;1.00;;;;;;8339248;28;20202;-62
2023/07/13 21:08:47;;;;;;;2.80;2.10;;;16.40;1.00;;;;;;8353833;28;20186;-63
2023/07/13 21:12:49;;;;;;;1.93;1.83;;;16.30;1.00;;;;;;8330191;28;20198;-63
2023/07/13 21:16:53;;;;;;;2.00;1.80;;;16.20;2.80;;;;;;8315470;28;20210;-63
2023/07/13 21:20:55;;;;;;;2.30;2.10;;;16.10;6.90;;;;;;8316069;28;20221;-63
2023/07/13 21:24:57;;;;;;;3.63;2.13;;;16.00;11.00;;;;;;8313389;28;20182;-63
2023/07/13 21:28:59;;;;;;;2.90;1.97;;;15.90;19.00;;;;;;8314842;28;20186;-63
2023/07/13 21:32:59;;;;;;;2.57;1.90;;;15.80;27.80;;;;;;8316028;28;20277;-62
2023/07/13 21:37:00;;;;;;;2.40;2.20;;;15.60;40.90;;;;;;8314484;28;20236;-63
2023/07/13 21:41:05;;;;;;;6.30;2.40;;;15.50;43.60;;;;;;8329995;28;20259;-65
2023/07/13 21:45:33;;;;;;;3.30;2.10;;;15.40;24.70;;;;;;8330911;28;20185;-63
2023/07/13 21:49:34;;;;;;;5.63;2.30;;;15.50;1.00;;;;;;8311033;28;20209;-63
2023/07/13 21:53:35;;;;;;;2.97;2.20;;;15.60;1.00;;;;;;8313685;28;20325;-66
2023/07/13 21:57:37;;;;;;;4.73;2.13;;;15.70;1.00;;;;;;8315532;28;20182;-67
2023/07/13 22:01:37;;;;;;;2.43;1.90;;;15.90;1.00;;;;;;8312309;28;20310;-64
2023/07/13 22:05:38;;;;;;;3.00;1.70;;;16.20;1.00;;;;;;8313264;28;20254;-66
2023/07/13 22:09:39;;;;;;;2.80;1.97;;;16.50;1.00;;;;;;8315238;28;20273;-69
2023/07/13 22:13:41;;;;;;;2.30;1.70;;;16.70;1.00;;;;;;8313491;28;20190;-67
2023/07/13 22:17:47;;;;;;;2.23;1.67;;;16.90;1.00;;;;;;8331261;28;20236;-65
2023/07/13 22:21:49;;;;;;;3.77;1.73;;;16.80;1.00;;;;;;8310996;28;20206;-65
2023/07/13 22:25:52;;;;;;;3.87;1.77;;;16.70;1.00;;;;;;8309990;28;20190;-65
2023/07/13 22:29:53;;;;;;;5.03;2.10;;;16.60;1.00;;;;;;8319779;28;20187;-64
2023/07/13 22:33:58;;;;;;;2.60;1.80;;;16.40;1.00;;;;;;8317643;28;20198;-64
2023/07/13 22:37:58;;;;;;;1.70;1.50;;;16.20;1.00;;;;;;8312712;28;20236;-64
2023/07/13 22:41:59;;;;;;;1.70;1.57;;;16.00;1.00;;;;;;8312256;28;20207;-64
2023/07/13 22:46:03;;;;;;;2.60;1.30;;;15.70;1.00;;;;;;8314508;28;20186;-64
2023/07/13 22:50:15;;;;;;;1.77;1.67;;;15.60;1.00;;;;;;8313117;28;20197;-65
2023/07/13 22:54:17;;;;;;;1.80;1.70;;;15.40;1.00;;;;;;8314590;28;20187;-64
2023/07/13 22:58:18;;;;;;;3.50;2.10;;;15.30;1.00;;;;;;8313542;28;20243;-64
2023/07/13 23:02:19;;;;;;;3.27;1.60;;;15.20;1.00;;;;;;8311149;28;20213;-64
2023/07/13 23:06:29;;;;;;;2.53;1.90;;;15.10;1.00;;;;;;8310511;28;20201;-65
2023/07/13 23:10:30;;;;;;;2.80;1.60;;;15.00;1.00;;;;;;8334607;28;20183;-65
2023/07/13 23:14:31;;;;;;;2.90;1.60;;;14.90;1.00;;;;;;8312315;28;20274;-64
2023/07/13 23:18:32;;;;;;;2.27;1.70;;;14.80;1.00;;;;;;8318245;28;20183;-64
2023/07/13 23:22:33;;;;;;;2.60;1.77;;;14.60;1.00;;;;;;8315488;28;20219;-64
2023/07/13 23:26:35;;;;;;;2.87;1.70;;;14.50;1.00;;;;;;8330582;28;20269;-65
2023/07/13 23:30:37;;;;;;;2.33;1.70;;;14.30;1.00;;;;;;8311068;28;20199;-64
2023/07/13 23:34:38;;;;;;;3.37;1.70;;;14.20;1.00;;;;;;8316680;28;20214;-64
2023/07/13 23:38:40;;;;;;;3.10;1.83;;;14.00;1.00;;;;;;8305797;28;20189;-64
2023/07/13 23:42:42;;;;;;;2.23;1.93;;;13.80;1.00;;;;;;8312910;28;20214;-64
2023/07/13 23:46:50;;;;;;;3.10;2.00;;;13.70;1.00;;;;;;8313343;28;20174;-64
2023/07/13 23:50:52;;;;;;;2.63;2.00;;;13.60;1.00;;;;;;8312730;28;20197;-65
2023/07/13 23:54:53;;;;;;;2.43;2.10;;;13.60;1.00;;;;;;8314031;28;20186;-65
2023/07/13 23:58:54;;;;;;;1.80;1.70;;;13.50;1.50;;;;;;8315080;28;20187;-65
